Flight Track Log - Related Links

Times and Time Zones

All times are in EST time to prevent confusion due to time zone crossing. See the N9305N flight status page for this flight to view local times or setup timezone preferences in your user account.

Time Position Orientation Groundspeed Altitude Reporting Facility
EST Latitude Longitude Course Direction KTS MPH feet Rate Location/Type
Sat 11:27:51 AM 28.5500 -81.3167 41° Northeast 83 96 400  Level Orlando TRACON
Sat 11:29:09 AM 28.5667 -81.3000 41° Northeast 90 104 1,200 518 Climbing Orlando TRACON
Sat 11:30:10 AM 28.5833 -81.2667 60° Northeast 106 122 1,600 198 Climbing Orlando TRACON
Sat 11:31:10 AM 28.6000 -81.2333 60° Northeast 126 145 1,600  Level Orlando TRACON
Sat 11:32:10 AM 28.6333 -81.2000 41° Northeast 120 138 1,600 200 Level Orlando TRACON
Sat 11:33:10 AM 28.6500 -81.1833 41° Northeast 108 124 2,000 446 Climbing Orlando TRACON
Sat 11:34:11 AM 28.6667 -81.1500 60° Northeast 111 128 2,500 496 Climbing Orlando TRACON
Sat 11:35:11 AM 28.6833 -81.1167 60° Northeast 112 129 3,000 474 Climbing Orlando TRACON
Sat 11:36:05 AM 28.7000 -81.1000 41° Northeast 102 117 3,400 400 Climbing Orlando TRACON
Sat 11:37:11 AM 28.7333 -81.1000 360° North 105 121 3,800 409 Climbing Orlando TRACON
Sat 11:38:17 AM 28.7667 -81.1000 360° North 105 121 4,300 400 Climbing Orlando TRACON
Sat 11:39:11 AM 28.8000 -81.1000 360° North 108 124 4,600 365 Climbing Orlando TRACON
Sat 11:40:12 AM 28.8167 -81.1167 319° Northwest 85 98 5,000 198 Climbing Orlando TRACON
Sat 11:41:12 AM 28.8167 -81.1333 270° West 94 108 5,000  Level Orlando TRACON
Sat 11:42:12 AM 28.8333 -81.1667 300° West 93 107 5,000  Level Orlando TRACON
Sat 11:43:12 AM 28.8500 -81.1833 319° Northwest 89 102 5,000  Level Orlando TRACON
Sat 11:44:12 AM 28.8667 -81.2000 319° Northwest 87 100 5,000 53 Level Orlando TRACON
Sat 11:45:06 AM 28.8822 -81.2328 298° West 90 104 5,100 47 Climbing Jacksonville Center
Sat 11:46:19 AM 28.8992 -81.2586 307° West 88 101 5,100  Level Jacksonville Center
Sat 11:47:26 AM 28.9161 -81.2844 307° West 89 102 5,100  Level Jacksonville Center
Sat 11:48:27 AM 28.9333 -81.3103 307° West 92 106 5,100  Level Jacksonville Center
Sat 11:49:22 AM 28.9500 -81.3242 324° Northwest 113 130 5,100  Level Jacksonville Center
Sat 11:50:23 AM 28.9833 -81.3236 North 116 133 5,100  Level Jacksonville Center
Sat 11:51:30 AM 29.0211 -81.3231 North 113 130 5,100  Level Jacksonville Center
Sat 11:52:25 AM 29.0481 -81.3250 356° North 107 123 5,100  Level Jacksonville Center
Sat 11:53:26 AM 29.0794 -81.3244 North 110 127 5,100  Level Jacksonville Center
Sat 11:54:27 AM 29.1108 -81.3264 357° North 110 127 5,100  Level Jacksonville Center
Sat 11:55:34 AM 29.1442 -81.3258 North 108 124 5,100  Level Jacksonville Center
Sat 11:56:42 AM 29.1775 -81.3278 357° North 107 123 5,100 -47 Level Jacksonville Center
Sat 11:57:42 AM 29.2089 -81.3294 357° North 109 125 5,000 -52 Descending Jacksonville Center
Sat 11:58:37 AM 29.2381 -81.3292 360° North 112 129 5,000  Level Jacksonville Center
Sat 11:59:44 AM 29.2717 -81.3286 North 111 128 5,000  Level Jacksonville Center
Sat 12:00:40 PM 29.3008 -81.3281 North 111 128 5,000  Level Jacksonville Center
Sat 12:01:47 PM 29.3322 -81.3325 353° North 108 124 5,000  Level Jacksonville Center
Sat 12:02:42 PM 29.3614 -81.3319 North 108 124 5,000  Level Jacksonville Center
Sat 12:03:43 PM 29.3906 -81.3314 North 109 125 5,000  Level Jacksonville Center
Sat 12:04:44 PM 29.4219 -81.3308 North 110 127 5,000  Level Jacksonville Center
Sat 12:05:45 PM 29.4533 -81.3353 353° North 108 124 5,000  Level Jacksonville Center
Sat 12:06:46 PM 29.4844 -81.3347 North 109 125 5,000  Level Jacksonville Center
Sat 12:07:42 PM 29.5117 -81.3342 North 108 124 5,000 -207 Level Jacksonville Center
Sat 12:08:42 PM 29.5431 -81.3339 360° North 115 132 4,600 -417 Descending Jacksonville Center
Sat 12:09:37 PM 29.5744 -81.3356 357° North 122 140 4,200 -414 Descending Jacksonville Center
Sat 12:10:38 PM 29.6097 -81.3350 North 124 143 3,800 -393 Descending Jacksonville Center
Sat 12:11:39 PM 29.6433 -81.3369 357° North 126 145 3,400 -370 Descending Jacksonville Center
Sat 12:11:59 PM 29.6578 -81.3367 North 128 147 3,300 -353 Descending Jacksonville Center
Sat 12:12:30 PM 29.6767 -81.3364 North 130 150 3,100 -196 Descending Jacksonville Center
Sat 12:13:31 PM 29.7122 -81.3358 North 122 140 3,000 -49 Descending Jacksonville Center
Sat 12:14:32 PM 29.7433 -81.3378 357° North 120 138 3,000  Level Jacksonville Center
Sat 12:15:33 PM 29.7789 -81.3394 358° North 121 139 3,000  Level Jacksonville Center
Sat 12:16:28 PM 29.8081 -81.3367 North 125 144 3,000  Level Jacksonville Center
Sat 12:17:35 PM 29.8458 -81.3386 357° North 117 135 3,000 -188 Level Jacksonville Center
Sat 12:18:36 PM 29.8833 -81.3356 North 144 166 2,600 -517 Descending Jacksonville Center
Sat 12:19:31 PM 29.9103 -81.3111 38° Northeast 125 144 2,000 -776 Descending Jacksonville Center
Sat 12:20:32 PM 29.9350 -81.3058 10° North 124 143 1,100 -634 Descending Jacksonville Center
Sat 12:21:34 PM 29.9519 -81.3225 320° Northwest 113 130 700 -195 Descending Jacksonville Center
Sat 12:22:35 PM 29.9519 -81.3225 360° North 113 130 700  Level Jacksonville Center
Sat 12:24:37 PM 29.9519 -81.3225 360° North 113 130 700  Level Jacksonville Center

Login

Don't have an account? Register now (free) for customized features, flight alerts, and more!